Accueil
METAR-TAF:

METAR-TAF

Aéroports :

Lille, France

Aéroport de Lille-Lesquin

latitude: 50-34N, longitude: 003-06E, altitude: 48 m

Observation

Le bulletin a été fait il y a 22 minutes, à 08:30 UTC
Vent 8 kt de ouest, variant entre sud-ouest et ouest/nord-ouest
Température 19°C
Humidité 73%
Pression 1017 hPa
Visibilité 10 km ou plus
Nuages fragmentés à une hauteur de 1700 ft
Nuages fragmentés à une hauteur de 22000 ft

METAR: LFQQ 240830Z AUTO 27008KT 220V300 9999 BKN017 BKN220 19/14 Q1017 NOSIG

Heure: 10:52 (08:52 UTC)

Prévision

Le bulletin a été fait il y a 3 heures et 52 minutes, à 05:00 UTC
Prévision valable du 24 à 06 UTC au 25 à 12 UTC
Vent 7 kt de ouest
Visibilité 10 km ou plus
pas de nuages en-dessous de 1500 mètres et pas de cumulonimbus.
Probabilité 30% :
Temporairement
du 24 à 06 UTC au 24 à 08 UTC
Nuages fragmentés à une hauteur de 1300 ft

TAF: LFQQ 240500Z 2406/2512 26007KT CAVOK PROB30 TEMPO 2406/2408 BKN013

Observations et prévisions météorologiques de plus de 4000 aéroports (messages METAR et TAF).

Les stations disponibles sont représentées par des disques jaunes et rouges sur la carte.

Passer la souris dessus pour voir le nom de la station.

Cliquer dessus pour voir les observations et prévisions météorologiques.

Pour changer de carte: cliquez sur les boutons verts avec une croix noire pour zoomer, sur le bouton vert avec un tiret pour effectuer un zoom arrière, ou sur les flèches vertes pour les cartes adjacentes.


METAR-TAF: